sensor_id;sensor_type;location;lat;lon;timestamp;P1;durP1;ratioP1;P2;durP2;ratioP2
35330;SDS011;21441;52.190;20.910;2023-02-28T00:00:38;12.52;;;7.35;;
35330;SDS011;21441;52.190;20.910;2023-02-28T00:03:17;18.10;;;8.55;;
35330;SDS011;21441;52.190;20.910;2023-02-28T00:05:45;12.50;;;8.00;;
35330;SDS011;21441;52.190;20.910;2023-02-28T00:08:12;11.68;;;7.20;;
35330;SDS011;21441;52.190;20.910;2023-02-28T00:10:41;15.68;;;8.55;;
35330;SDS011;21441;52.190;20.910;2023-02-28T00:13:08;12.52;;;7.57;;
35330;SDS011;21441;52.190;20.910;2023-02-28T00:15:36;16.15;;;7.95;;
35330;SDS011;21441;52.190;20.910;2023-02-28T00:18:04;12.50;;;7.93;;
35330;SDS011;21441;52.190;20.910;2023-02-28T00:20:31;11.75;;;7.32;;
35330;SDS011;21441;52.190;20.910;2023-02-28T00:22:58;18.02;;;8.65;;
35330;SDS011;21441;52.190;20.910;2023-02-28T00:25:26;15.07;;;8.32;;
35330;SDS011;21441;52.190;20.910;2023-02-28T00:27:55;10.68;;;7.60;;
35330;SDS011;21441;52.190;20.910;2023-02-28T00:30:22;13.82;;;7.75;;
35330;SDS011;21441;52.190;20.910;2023-02-28T00:32:50;13.88;;;8.18;;
35330;SDS011;21441;52.190;20.910;2023-02-28T00:35:18;13.57;;;8.10;;
35330;SDS011;21441;52.190;20.910;2023-02-28T00:37:45;14.15;;;7.47;;
35330;SDS011;21441;52.190;20.910;2023-02-28T00:40:15;11.90;;;6.60;;
35330;SDS011;21441;52.190;20.910;2023-02-28T00:42:43;18.88;;;9.75;;
35330;SDS011;21441;52.190;20.910;2023-02-28T00:45:11;22.05;;;11.02;;
35330;SDS011;21441;52.190;20.910;2023-02-28T00:47:39;22.33;;;10.20;;
35330;SDS011;21441;52.190;20.910;2023-02-28T00:50:06;21.35;;;11.05;;
35330;SDS011;21441;52.190;20.910;2023-02-28T00:52:35;18.60;;;11.13;;
35330;SDS011;21441;52.190;20.910;2023-02-28T00:55:02;19.38;;;10.15;;
35330;SDS011;21441;52.190;20.910;2023-02-28T00:57:30;20.52;;;9.48;;
35330;SDS011;21441;52.190;20.910;2023-02-28T00:59:57;14.88;;;9.05;;
35330;SDS011;21441;52.190;20.910;2023-02-28T01:02:26;18.17;;;10.10;;
35330;SDS011;21441;52.190;20.910;2023-02-28T01:04:54;16.00;;;8.77;;
35330;SDS011;21441;52.190;20.910;2023-02-28T01:07:22;16.58;;;10.55;;
35330;SDS011;21441;52.190;20.910;2023-02-28T01:09:49;16.35;;;9.73;;
35330;SDS011;21441;52.190;20.910;2023-02-28T01:12:17;18.00;;;10.57;;
35330;SDS011;21441;52.190;20.910;2023-02-28T01:14:44;15.68;;;9.90;;
35330;SDS011;21441;52.190;20.910;2023-02-28T01:17:12;15.75;;;9.57;;
35330;SDS011;21441;52.190;20.910;2023-02-28T01:19:40;17.55;;;9.55;;
35330;SDS011;21441;52.190;20.910;2023-02-28T01:22:08;20.08;;;9.43;;
35330;SDS011;21441;52.190;20.910;2023-02-28T01:24:35;15.55;;;10.38;;
35330;SDS011;21441;52.190;20.910;2023-02-28T01:27:04;20.45;;;9.93;;
35330;SDS011;21441;52.190;20.910;2023-02-28T01:29:31;18.70;;;10.15;;
35330;SDS011;21441;52.190;20.910;2023-02-28T01:31:58;17.42;;;10.50;;
35330;SDS011;21441;52.190;20.910;2023-02-28T01:34:26;16.77;;;10.07;;
35330;SDS011;21441;52.190;20.910;2023-02-28T01:36:57;16.75;;;10.07;;
35330;SDS011;21441;52.190;20.910;2023-02-28T01:39:25;14.35;;;9.65;;
35330;SDS011;21441;52.190;20.910;2023-02-28T01:41:52;17.60;;;10.25;;
35330;SDS011;21441;52.190;20.910;2023-02-28T01:47:24;15.30;;;9.43;;
35330;SDS011;21441;52.190;20.910;2023-02-28T01:49:53;15.05;;;9.23;;
35330;SDS011;21441;52.190;20.910;2023-02-28T01:52:23;17.10;;;9.93;;
35330;SDS011;21441;52.190;20.910;2023-02-28T01:54:53;15.88;;;10.30;;
35330;SDS011;21441;52.190;20.910;2023-02-28T01:57:23;14.13;;;8.70;;
35330;SDS011;21441;52.190;20.910;2023-02-28T01:59:56;15.77;;;9.48;;
35330;SDS011;21441;52.190;20.910;2023-02-28T02:02:26;15.27;;;8.88;;
35330;SDS011;21441;52.190;20.910;2023-02-28T02:04:56;13.75;;;7.55;;
35330;SDS011;21441;52.190;20.910;2023-02-28T02:07:31;17.83;;;9.43;;
35330;SDS011;21441;52.190;20.910;2023-02-28T02:10:02;16.40;;;9.25;;
35330;SDS011;21441;52.190;20.910;2023-02-28T02:12:42;15.55;;;9.50;;
35330;SDS011;21441;52.190;20.910;2023-02-28T02:15:28;15.05;;;9.13;;
35330;SDS011;21441;52.190;20.910;2023-02-28T02:18:02;14.75;;;9.30;;
35330;SDS011;21441;52.190;20.910;2023-02-28T02:20:46;15.60;;;8.77;;
35330;SDS011;21441;52.190;20.910;2023-02-28T02:27:08;16.50;;;9.57;;
35330;SDS011;21441;52.190;20.910;2023-02-28T02:30:06;15.75;;;9.80;;
35330;SDS011;21441;52.190;20.910;2023-02-28T02:35:35;17.25;;;9.73;;
35330;SDS011;21441;52.190;20.910;2023-02-28T02:38:10;14.98;;;9.38;;
35330;SDS011;21441;52.190;20.910;2023-02-28T02:40:46;15.93;;;9.73;;
35330;SDS011;21441;52.190;20.910;2023-02-28T02:43:19;14.93;;;9.43;;
35330;SDS011;21441;52.190;20.910;2023-02-28T02:45:50;19.95;;;9.20;;
35330;SDS011;21441;52.190;20.910;2023-02-28T02:48:24;15.07;;;10.10;;
35330;SDS011;21441;52.190;20.910;2023-02-28T02:50:56;17.13;;;10.57;;
35330;SDS011;21441;52.190;20.910;2023-02-28T02:53:27;14.88;;;9.65;;
35330;SDS011;21441;52.190;20.910;2023-02-28T02:55:59;16.17;;;10.32;;
35330;SDS011;21441;52.190;20.910;2023-02-28T02:58:29;12.98;;;8.88;;
35330;SDS011;21441;52.190;20.910;2023-02-28T03:01:01;14.02;;;8.98;;
35330;SDS011;21441;52.190;20.910;2023-02-28T03:03:30;13.57;;;8.95;;
35330;SDS011;21441;52.190;20.910;2023-02-28T03:06:01;10.77;;;7.05;;
35330;SDS011;21441;52.190;20.910;2023-02-28T03:08:29;13.85;;;8.77;;
35330;SDS011;21441;52.190;20.910;2023-02-28T03:11:02;17.05;;;9.63;;
35330;SDS011;21441;52.190;20.910;2023-02-28T03:16:32;15.32;;;9.02;;
35330;SDS011;21441;52.190;20.910;2023-02-28T03:19:07;19.27;;;9.98;;
35330;SDS011;21441;52.190;20.910;2023-02-28T03:21:52;16.58;;;9.65;;
35330;SDS011;21441;52.190;20.910;2023-02-28T03:24:31;14.95;;;8.82;;
35330;SDS011;21441;52.190;20.910;2023-02-28T03:27:07;16.83;;;10.00;;
35330;SDS011;21441;52.190;20.910;2023-02-28T03:29:39;12.85;;;9.32;;
35330;SDS011;21441;52.190;20.910;2023-02-28T03:32:13;21.50;;;10.18;;
35330;SDS011;21441;52.190;20.910;2023-02-28T03:34:48;16.48;;;9.13;;
35330;SDS011;21441;52.190;20.910;2023-02-28T03:37:24;14.90;;;8.90;;
35330;SDS011;21441;52.190;20.910;2023-02-28T03:39:56;13.07;;;9.50;;
35330;SDS011;21441;52.190;20.910;2023-02-28T03:42:28;15.20;;;9.18;;
35330;SDS011;21441;52.190;20.910;2023-02-28T03:44:59;15.25;;;9.18;;
35330;SDS011;21441;52.190;20.910;2023-02-28T03:47:31;17.02;;;9.35;;
35330;SDS011;21441;52.190;20.910;2023-02-28T03:50:03;14.68;;;9.45;;
35330;SDS011;21441;52.190;20.910;2023-02-28T03:52:36;16.33;;;8.52;;
35330;SDS011;21441;52.190;20.910;2023-02-28T03:55:10;11.27;;;7.32;;
35330;SDS011;21441;52.190;20.910;2023-02-28T03:57:40;12.85;;;8.15;;
35330;SDS011;21441;52.190;20.910;2023-02-28T04:00:17;12.80;;;7.68;;
35330;SDS011;21441;52.190;20.910;2023-02-28T04:02:48;12.68;;;8.40;;
35330;SDS011;21441;52.190;20.910;2023-02-28T04:05:18;11.40;;;7.70;;
35330;SDS011;21441;52.190;20.910;2023-02-28T04:07:47;11.75;;;6.75;;
35330;SDS011;21441;52.190;20.910;2023-02-28T04:10:15;13.10;;;7.30;;
35330;SDS011;21441;52.190;20.910;2023-02-28T04:12:43;12.77;;;7.32;;
35330;SDS011;21441;52.190;20.910;2023-02-28T04:15:10;8.55;;;6.43;;
35330;SDS011;21441;52.190;20.910;2023-02-28T04:17:38;12.13;;;8.18;;
35330;SDS011;21441;52.190;20.910;2023-02-28T04:20:06;11.98;;;7.70;;
35330;SDS011;21441;52.190;20.910;2023-02-28T04:22:36;13.57;;;8.93;;
35330;SDS011;21441;52.190;20.910;2023-02-28T04:25:06;12.07;;;8.13;;
35330;SDS011;21441;52.190;20.910;2023-02-28T04:27:34;12.98;;;7.57;;
35330;SDS011;21441;52.190;20.910;2023-02-28T04:30:01;11.60;;;7.45;;
35330;SDS011;21441;52.190;20.910;2023-02-28T04:32:29;14.70;;;7.88;;
35330;SDS011;21441;52.190;20.910;2023-02-28T04:34:56;14.00;;;8.32;;
35330;SDS011;21441;52.190;20.910;2023-02-28T04:37:24;18.27;;;8.57;;
35330;SDS011;21441;52.190;20.910;2023-02-28T04:39:54;12.20;;;7.93;;
35330;SDS011;21441;52.190;20.910;2023-02-28T04:42:23;11.32;;;7.25;;
35330;SDS011;21441;52.190;20.910;2023-02-28T04:44:50;12.88;;;7.65;;
35330;SDS011;21441;52.190;20.910;2023-02-28T04:47:18;16.67;;;8.35;;
35330;SDS011;21441;52.190;20.910;2023-02-28T04:49:45;15.45;;;9.73;;
35330;SDS011;21441;52.190;20.910;2023-02-28T04:52:13;14.13;;;10.05;;
35330;SDS011;21441;52.190;20.910;2023-02-28T04:54:40;20.23;;;10.98;;
35330;SDS011;21441;52.190;20.910;2023-02-28T04:57:08;18.75;;;9.85;;
35330;SDS011;21441;52.190;20.910;2023-02-28T04:59:36;15.75;;;9.50;;
35330;SDS011;21441;52.190;20.910;2023-02-28T05:02:04;16.13;;;9.88;;
35330;SDS011;21441;52.190;20.910;2023-02-28T05:04:32;16.58;;;10.57;;
35330;SDS011;21441;52.190;20.910;2023-02-28T05:09:29;16.98;;;11.45;;
35330;SDS011;21441;52.190;20.910;2023-02-28T05:11:58;20.00;;;10.30;;
35330;SDS011;21441;52.190;20.910;2023-02-28T05:14:25;19.00;;;10.52;;
35330;SDS011;21441;52.190;20.910;2023-02-28T05:16:54;15.77;;;9.75;;
35330;SDS011;21441;52.190;20.910;2023-02-28T05:19:22;17.73;;;10.27;;
35330;SDS011;21441;52.190;20.910;2023-02-28T05:21:50;15.07;;;9.73;;
35330;SDS011;21441;52.190;20.910;2023-02-28T05:24:19;14.57;;;9.18;;
35330;SDS011;21441;52.190;20.910;2023-02-28T05:26:48;15.98;;;9.10;;
35330;SDS011;21441;52.190;20.910;2023-02-28T05:29:18;15.25;;;9.82;;
35330;SDS011;21441;52.190;20.910;2023-02-28T05:31:46;14.98;;;9.40;;
35330;SDS011;21441;52.190;20.910;2023-02-28T05:34:14;19.77;;;11.18;;
35330;SDS011;21441;52.190;20.910;2023-02-28T05:36:42;15.60;;;10.02;;
35330;SDS011;21441;52.190;20.910;2023-02-28T05:39:09;16.05;;;9.73;;
35330;SDS011;21441;52.190;20.910;2023-02-28T05:41:39;20.40;;;10.27;;
35330;SDS011;21441;52.190;20.910;2023-02-28T05:44:07;15.55;;;10.38;;
35330;SDS011;21441;52.190;20.910;2023-02-28T05:46:35;14.88;;;10.25;;
35330;SDS011;21441;52.190;20.910;2023-02-28T05:49:03;17.20;;;10.10;;
35330;SDS011;21441;52.190;20.910;2023-02-28T05:51:32;20.60;;;11.80;;
35330;SDS011;21441;52.190;20.910;2023-02-28T05:54:01;19.48;;;11.55;;
35330;SDS011;21441;52.190;20.910;2023-02-28T05:56:30;24.13;;;11.10;;
35330;SDS011;21441;52.190;20.910;2023-02-28T05:58:57;15.85;;;10.70;;
35330;SDS011;21441;52.190;20.910;2023-02-28T06:01:30;18.17;;;10.60;;
35330;SDS011;21441;52.190;20.910;2023-02-28T06:04:00;20.92;;;11.48;;
35330;SDS011;21441;52.190;20.910;2023-02-28T06:06:28;16.60;;;11.13;;
35330;SDS011;21441;52.190;20.910;2023-02-28T06:08:57;18.52;;;11.00;;
35330;SDS011;21441;52.190;20.910;2023-02-28T06:11:25;23.60;;;11.93;;
35330;SDS011;21441;52.190;20.910;2023-02-28T06:13:53;17.30;;;10.15;;
35330;SDS011;21441;52.190;20.910;2023-02-28T06:16:21;15.15;;;9.68;;
35330;SDS011;21441;52.190;20.910;2023-02-28T06:18:48;15.00;;;9.98;;
35330;SDS011;21441;52.190;20.910;2023-02-28T06:21:16;16.98;;;9.25;;
35330;SDS011;21441;52.190;20.910;2023-02-28T06:23:43;20.58;;;10.13;;
35330;SDS011;21441;52.190;20.910;2023-02-28T06:26:12;21.10;;;10.70;;
35330;SDS011;21441;52.190;20.910;2023-02-28T06:28:40;16.33;;;9.15;;
35330;SDS011;21441;52.190;20.910;2023-02-28T06:31:08;19.23;;;10.35;;
35330;SDS011;21441;52.190;20.910;2023-02-28T06:33:37;17.05;;;11.15;;
35330;SDS011;21441;52.190;20.910;2023-02-28T06:36:06;15.02;;;10.70;;
35330;SDS011;21441;52.190;20.910;2023-02-28T06:38:34;17.92;;;10.20;;
35330;SDS011;21441;52.190;20.910;2023-02-28T06:41:02;15.75;;;9.93;;
35330;SDS011;21441;52.190;20.910;2023-02-28T06:43:32;16.42;;;10.43;;
35330;SDS011;21441;52.190;20.910;2023-02-28T06:46:02;13.38;;;8.73;;
35330;SDS011;21441;52.190;20.910;2023-02-28T06:48:30;15.90;;;9.20;;
35330;SDS011;21441;52.190;20.910;2023-02-28T06:51:01;13.98;;;8.27;;
35330;SDS011;21441;52.190;20.910;2023-02-28T06:53:29;18.13;;;8.35;;
35330;SDS011;21441;52.190;20.910;2023-02-28T06:55:57;14.13;;;8.35;;
35330;SDS011;21441;52.190;20.910;2023-02-28T06:58:24;13.88;;;7.82;;
35330;SDS011;21441;52.190;20.910;2023-02-28T07:00:54;10.27;;;7.03;;
35330;SDS011;21441;52.190;20.910;2023-02-28T07:03:21;11.63;;;7.95;;
35330;SDS011;21441;52.190;20.910;2023-02-28T07:05:49;15.55;;;7.15;;
35330;SDS011;21441;52.190;20.910;2023-02-28T07:08:16;12.15;;;6.90;;
35330;SDS011;21441;52.190;20.910;2023-02-28T07:10:44;10.98;;;5.88;;
35330;SDS011;21441;52.190;20.910;2023-02-28T07:13:11;9.07;;;5.45;;
35330;SDS011;21441;52.190;20.910;2023-02-28T07:15:39;8.43;;;6.22;;
35330;SDS011;21441;52.190;20.910;2023-02-28T07:18:07;6.72;;;5.55;;
35330;SDS011;21441;52.190;20.910;2023-02-28T07:20:35;8.98;;;6.43;;
35330;SDS011;21441;52.190;20.910;2023-02-28T07:23:02;13.13;;;5.22;;
35330;SDS011;21441;52.190;20.910;2023-02-28T07:25:30;7.30;;;5.03;;
35330;SDS011;21441;52.190;20.910;2023-02-28T07:27:57;8.10;;;5.07;;
35330;SDS011;21441;52.190;20.910;2023-02-28T07:30:25;8.45;;;6.03;;
35330;SDS011;21441;52.190;20.910;2023-02-28T07:32:53;8.15;;;6.43;;
35330;SDS011;21441;52.190;20.910;2023-02-28T07:35:22;9.90;;;6.13;;
35330;SDS011;21441;52.190;20.910;2023-02-28T07:37:50;7.85;;;5.90;;
35330;SDS011;21441;52.190;20.910;2023-02-28T07:40:17;9.55;;;6.30;;
35330;SDS011;21441;52.190;20.910;2023-02-28T07:42:45;10.30;;;6.40;;
35330;SDS011;21441;52.190;20.910;2023-02-28T07:45:12;9.43;;;5.88;;
35330;SDS011;21441;52.190;20.910;2023-02-28T07:47:41;8.85;;;6.03;;
35330;SDS011;21441;52.190;20.910;2023-02-28T07:50:09;6.22;;;4.53;;
35330;SDS011;21441;52.190;20.910;2023-02-28T07:52:40;7.22;;;4.30;;
35330;SDS011;21441;52.190;20.910;2023-02-28T07:55:08;5.88;;;5.03;;
35330;SDS011;21441;52.190;20.910;2023-02-28T07:57:36;8.23;;;5.78;;
35330;SDS011;21441;52.190;20.910;2023-02-28T08:00:05;11.10;;;6.55;;
35330;SDS011;21441;52.190;20.910;2023-02-28T08:02:36;9.65;;;6.22;;
35330;SDS011;21441;52.190;20.910;2023-02-28T08:05:03;9.07;;;6.30;;
35330;SDS011;21441;52.190;20.910;2023-02-28T08:07:32;9.98;;;7.03;;
35330;SDS011;21441;52.190;20.910;2023-02-28T08:10:01;9.95;;;6.55;;
35330;SDS011;21441;52.190;20.910;2023-02-28T08:12:31;12.05;;;6.82;;
35330;SDS011;21441;52.190;20.910;2023-02-28T08:14:58;10.30;;;6.45;;
35330;SDS011;21441;52.190;20.910;2023-02-28T08:17:26;9.10;;;6.47;;
35330;SDS011;21441;52.190;20.910;2023-02-28T08:19:53;11.32;;;5.93;;
35330;SDS011;21441;52.190;20.910;2023-02-28T08:22:21;8.65;;;6.15;;
35330;SDS011;21441;52.190;20.910;2023-02-28T08:24:48;11.70;;;7.95;;
35330;SDS011;21441;52.190;20.910;2023-02-28T08:27:17;9.88;;;6.55;;
35330;SDS011;21441;52.190;20.910;2023-02-28T08:29:44;8.18;;;5.85;;
35330;SDS011;21441;52.190;20.910;2023-02-28T08:32:12;7.93;;;5.55;;
35330;SDS011;21441;52.190;20.910;2023-02-28T08:34:39;7.93;;;5.22;;
35330;SDS011;21441;52.190;20.910;2023-02-28T08:37:07;12.25;;;6.65;;
35330;SDS011;21441;52.190;20.910;2023-02-28T08:39:34;9.30;;;6.40;;
35330;SDS011;21441;52.190;20.910;2023-02-28T08:42:02;10.38;;;6.75;;
35330;SDS011;21441;52.190;20.910;2023-02-28T08:44:32;8.82;;;6.70;;
35330;SDS011;21441;52.190;20.910;2023-02-28T08:46:59;12.07;;;7.07;;
35330;SDS011;21441;52.190;20.910;2023-02-28T08:49:27;9.20;;;6.50;;
35330;SDS011;21441;52.190;20.910;2023-02-28T08:51:54;12.20;;;6.50;;
35330;SDS011;21441;52.190;20.910;2023-02-28T08:54:22;13.35;;;6.95;;
35330;SDS011;21441;52.190;20.910;2023-02-28T08:56:50;14.43;;;7.75;;
35330;SDS011;21441;52.190;20.910;2023-02-28T08:59:17;17.70;;;9.70;;
35330;SDS011;21441;52.190;20.910;2023-02-28T09:01:47;18.55;;;9.70;;
35330;SDS011;21441;52.190;20.910;2023-02-28T09:04:14;12.15;;;8.18;;
35330;SDS011;21441;52.190;20.910;2023-02-28T09:06:42;10.85;;;7.13;;
35330;SDS011;21441;52.190;20.910;2023-02-28T09:09:09;13.10;;;8.13;;
35330;SDS011;21441;52.190;20.910;2023-02-28T09:11:37;8.95;;;6.03;;
35330;SDS011;21441;52.190;20.910;2023-02-28T09:14:04;9.20;;;6.55;;
35330;SDS011;21441;52.190;20.910;2023-02-28T09:16:32;12.07;;;7.28;;
35330;SDS011;21441;52.190;20.910;2023-02-28T09:19:02;13.60;;;8.60;;
35330;SDS011;21441;52.190;20.910;2023-02-28T09:21:29;13.52;;;8.35;;
35330;SDS011;21441;52.190;20.910;2023-02-28T09:23:57;10.77;;;7.32;;
35330;SDS011;21441;52.190;20.910;2023-02-28T09:26:26;9.82;;;7.20;;
35330;SDS011;21441;52.190;20.910;2023-02-28T09:28:54;13.48;;;8.52;;
35330;SDS011;21441;52.190;20.910;2023-02-28T09:33:54;10.30;;;6.85;;
35330;SDS011;21441;52.190;20.910;2023-02-28T09:36:25;12.02;;;7.20;;
35330;SDS011;21441;52.190;20.910;2023-02-28T09:38:53;9.48;;;7.18;;
35330;SDS011;21441;52.190;20.910;2023-02-28T09:41:22;10.52;;;6.88;;
35330;SDS011;21441;52.190;20.910;2023-02-28T09:43:55;11.57;;;7.22;;
35330;SDS011;21441;52.190;20.910;2023-02-28T09:46:28;14.77;;;7.68;;
35330;SDS011;21441;52.190;20.910;2023-02-28T09:48:59;14.07;;;8.15;;
35330;SDS011;21441;52.190;20.910;2023-02-28T09:51:34;11.85;;;7.50;;
35330;SDS011;21441;52.190;20.910;2023-02-28T09:54:10;14.52;;;6.95;;
35330;SDS011;21441;52.190;20.910;2023-02-28T09:56:45;11.18;;;6.95;;
35330;SDS011;21441;52.190;20.910;2023-02-28T09:59:20;12.20;;;8.80;;
35330;SDS011;21441;52.190;20.910;2023-02-28T10:01:57;11.10;;;7.27;;
35330;SDS011;21441;52.190;20.910;2023-02-28T10:04:37;8.68;;;6.85;;
35330;SDS011;21441;52.190;20.910;2023-02-28T10:07:16;10.15;;;7.05;;
35330;SDS011;21441;52.190;20.910;2023-02-28T10:09:51;11.95;;;7.38;;
35330;SDS011;21441;52.190;20.910;2023-02-28T10:12:22;16.70;;;9.05;;
35330;SDS011;21441;52.190;20.910;2023-02-28T10:14:51;12.80;;;7.30;;
35330;SDS011;21441;52.190;20.910;2023-02-28T10:17:21;12.15;;;9.02;;
35330;SDS011;21441;52.190;20.910;2023-02-28T10:19:55;21.83;;;8.80;;
35330;SDS011;21441;52.190;20.910;2023-02-28T10:22:36;12.13;;;8.32;;
35330;SDS011;21441;52.190;20.910;2023-02-28T10:25:16;14.18;;;9.73;;
35330;SDS011;21441;52.190;20.910;2023-02-28T10:27:46;12.18;;;8.85;;
35330;SDS011;21441;52.190;20.910;2023-02-28T10:30:14;9.57;;;7.63;;
35330;SDS011;21441;52.190;20.910;2023-02-28T10:32:43;11.02;;;8.27;;
35330;SDS011;21441;52.190;20.910;2023-02-28T10:35:16;11.43;;;8.52;;
35330;SDS011;21441;52.190;20.910;2023-02-28T10:37:48;10.18;;;8.25;;
35330;SDS011;21441;52.190;20.910;2023-02-28T10:40:28;11.40;;;8.65;;
35330;SDS011;21441;52.190;20.910;2023-02-28T10:42:59;11.20;;;8.80;;
35330;SDS011;21441;52.190;20.910;2023-02-28T10:45:28;11.45;;;9.00;;
35330;SDS011;21441;52.190;20.910;2023-02-28T10:47:58;12.38;;;8.85;;
35330;SDS011;21441;52.190;20.910;2023-02-28T10:50:28;12.73;;;9.85;;
35330;SDS011;21441;52.190;20.910;2023-02-28T10:53:10;12.52;;;9.38;;
35330;SDS011;21441;52.190;20.910;2023-02-28T10:55:53;12.10;;;10.27;;
35330;SDS011;21441;52.190;20.910;2023-02-28T10:58:25;15.68;;;9.00;;
35330;SDS011;21441;52.190;20.910;2023-02-28T11:00:54;10.05;;;8.98;;
35330;SDS011;21441;52.190;20.910;2023-02-28T11:03:23;12.52;;;9.43;;
35330;SDS011;21441;52.190;20.910;2023-02-28T11:08:21;10.27;;;8.38;;
35330;SDS011;21441;52.190;20.910;2023-02-28T11:10:54;9.48;;;8.13;;
35330;SDS011;21441;52.190;20.910;2023-02-28T11:13:25;9.82;;;8.18;;
35330;SDS011;21441;52.190;20.910;2023-02-28T11:15:56;8.23;;;7.40;;
35330;SDS011;21441;52.190;20.910;2023-02-28T11:18:27;10.02;;;8.20;;
35330;SDS011;21441;52.190;20.910;2023-02-28T11:20:57;11.13;;;8.27;;
35330;SDS011;21441;52.190;20.910;2023-02-28T11:23:29;9.25;;;8.15;;
35330;SDS011;21441;52.190;20.910;2023-02-28T11:26:01;10.27;;;8.00;;
35330;SDS011;21441;52.190;20.910;2023-02-28T11:28:35;9.93;;;7.75;;
35330;SDS011;21441;52.190;20.910;2023-02-28T11:31:05;9.27;;;7.18;;
35330;SDS011;21441;52.190;20.910;2023-02-28T11:33:42;11.93;;;8.50;;
35330;SDS011;21441;52.190;20.910;2023-02-28T11:36:12;8.27;;;7.45;;
35330;SDS011;21441;52.190;20.910;2023-02-28T11:38:42;9.70;;;8.20;;
35330;SDS011;21441;52.190;20.910;2023-02-28T11:44:09;8.48;;;7.35;;
35330;SDS011;21441;52.190;20.910;2023-02-28T11:46:51;10.63;;;7.53;;
35330;SDS011;21441;52.190;20.910;2023-02-28T11:49:24;9.25;;;8.23;;
35330;SDS011;21441;52.190;20.910;2023-02-28T11:52:01;9.43;;;7.93;;
35330;SDS011;21441;52.190;20.910;2023-02-28T11:54:39;9.75;;;7.65;;
35330;SDS011;21441;52.190;20.910;2023-02-28T11:57:33;10.75;;;8.07;;
35330;SDS011;21441;52.190;20.910;2023-02-28T12:00:11;9.10;;;8.20;;
35330;SDS011;21441;52.190;20.910;2023-02-28T12:02:59;10.65;;;8.60;;
35330;SDS011;21441;52.190;20.910;2023-02-28T12:05:39;11.75;;;7.60;;
35330;SDS011;21441;52.190;20.910;2023-02-28T12:08:15;9.82;;;7.40;;
35330;SDS011;21441;52.190;20.910;2023-02-28T12:11:00;9.13;;;8.10;;
35330;SDS011;21441;52.190;20.910;2023-02-28T12:13:40;8.90;;;7.95;;
35330;SDS011;21441;52.190;20.910;2023-02-28T12:16:25;8.85;;;7.95;;
35330;SDS011;21441;52.190;20.910;2023-02-28T12:19:07;8.55;;;7.68;;
35330;SDS011;21441;52.190;20.910;2023-02-28T12:21:47;9.98;;;7.85;;
35330;SDS011;21441;52.190;20.910;2023-02-28T12:24:39;11.52;;;8.20;;
35330;SDS011;21441;52.190;20.910;2023-02-28T12:27:25;11.85;;;7.85;;
35330;SDS011;21441;52.190;20.910;2023-02-28T12:29:56;11.02;;;8.50;;
35330;SDS011;21441;52.190;20.910;2023-02-28T12:32:29;16.02;;;8.95;;
35330;SDS011;21441;52.190;20.910;2023-02-28T12:35:01;10.18;;;8.27;;
35330;SDS011;21441;52.190;20.910;2023-02-28T12:37:33;10.20;;;9.05;;
35330;SDS011;21441;52.190;20.910;2023-02-28T12:40:06;12.57;;;9.43;;
35330;SDS011;21441;52.190;20.910;2023-02-28T12:42:42;10.55;;;8.77;;
35330;SDS011;21441;52.190;20.910;2023-02-28T12:45:13;10.27;;;8.43;;
35330;SDS011;21441;52.190;20.910;2023-02-28T12:47:45;10.52;;;8.88;;
35330;SDS011;21441;52.190;20.910;2023-02-28T12:50:17;10.18;;;8.73;;
35330;SDS011;21441;52.190;20.910;2023-02-28T12:52:48;10.20;;;8.70;;
35330;SDS011;21441;52.190;20.910;2023-02-28T12:55:23;10.02;;;8.20;;
35330;SDS011;21441;52.190;20.910;2023-02-28T12:58:01;8.27;;;7.47;;
35330;SDS011;21441;52.190;20.910;2023-02-28T13:00:42;9.57;;;7.72;;
35330;SDS011;21441;52.190;20.910;2023-02-28T13:03:33;9.57;;;8.57;;
35330;SDS011;21441;52.190;20.910;2023-02-28T13:06:28;9.02;;;8.13;;
35330;SDS011;21441;52.190;20.910;2023-02-28T13:09:09;10.05;;;8.70;;
35330;SDS011;21441;52.190;20.910;2023-02-28T13:11:41;13.10;;;9.15;;
35330;SDS011;21441;52.190;20.910;2023-02-28T13:14:20;11.55;;;9.50;;
35330;SDS011;21441;52.190;20.910;2023-02-28T13:16:57;9.95;;;8.88;;
35330;SDS011;21441;52.190;20.910;2023-02-28T13:19:29;11.13;;;9.25;;
35330;SDS011;21441;52.190;20.910;2023-02-28T13:21:58;11.95;;;8.48;;
35330;SDS011;21441;52.190;20.910;2023-02-28T13:24:37;10.68;;;9.05;;
35330;SDS011;21441;52.190;20.910;2023-02-28T13:33:27;9.95;;;8.93;;
35330;SDS011;21441;52.190;20.910;2023-02-28T13:36:09;14.00;;;9.45;;
35330;SDS011;21441;52.190;20.910;2023-02-28T13:38:49;10.30;;;9.23;;
35330;SDS011;21441;52.190;20.910;2023-02-28T13:44:21;12.38;;;9.40;;
35330;SDS011;21441;52.190;20.910;2023-02-28T13:52:59;11.05;;;9.82;;
35330;SDS011;21441;52.190;20.910;2023-02-28T13:55:51;11.57;;;10.38;;
35330;SDS011;21441;52.190;20.910;2023-02-28T13:58:34;12.68;;;9.68;;
35330;SDS011;21441;52.190;20.910;2023-02-28T14:01:12;10.95;;;9.43;;
35330;SDS011;21441;52.190;20.910;2023-02-28T14:03:52;10.35;;;9.10;;
35330;SDS011;21441;52.190;20.910;2023-02-28T14:06:37;11.93;;;9.38;;
35330;SDS011;21441;52.190;20.910;2023-02-28T14:09:16;11.30;;;9.57;;
35330;SDS011;21441;52.190;20.910;2023-02-28T14:11:48;15.55;;;9.48;;
35330;SDS011;21441;52.190;20.910;2023-02-28T14:17:22;12.05;;;9.10;;
35330;SDS011;21441;52.190;20.910;2023-02-28T14:19:51;11.02;;;8.82;;
35330;SDS011;21441;52.190;20.910;2023-02-28T14:22:26;10.88;;;9.32;;
35330;SDS011;21441;52.190;20.910;2023-02-28T14:25:18;11.05;;;9.45;;
35330;SDS011;21441;52.190;20.910;2023-02-28T14:28:02;11.35;;;9.68;;
35330;SDS011;21441;52.190;20.910;2023-02-28T14:30:52;11.77;;;9.43;;
35330;SDS011;21441;52.190;20.910;2023-02-28T14:33:31;11.15;;;8.85;;
35330;SDS011;21441;52.190;20.910;2023-02-28T14:36:09;11.30;;;8.68;;
35330;SDS011;21441;52.190;20.910;2023-02-28T14:38:44;10.88;;;9.75;;
35330;SDS011;21441;52.190;20.910;2023-02-28T14:41:15;14.98;;;9.80;;
35330;SDS011;21441;52.190;20.910;2023-02-28T14:43:53;12.55;;;9.43;;
35330;SDS011;21441;52.190;20.910;2023-02-28T14:46:22;11.05;;;8.13;;
35330;SDS011;21441;52.190;20.910;2023-02-28T14:48:54;14.57;;;8.38;;
35330;SDS011;21441;52.190;20.910;2023-02-28T14:51:22;11.90;;;8.10;;
35330;SDS011;21441;52.190;20.910;2023-02-28T14:53:52;11.27;;;8.35;;
35330;SDS011;21441;52.190;20.910;2023-02-28T14:56:25;12.27;;;8.23;;
35330;SDS011;21441;52.190;20.910;2023-02-28T14:58:56;9.48;;;8.35;;
35330;SDS011;21441;52.190;20.910;2023-02-28T15:01:25;11.52;;;8.60;;
35330;SDS011;21441;52.190;20.910;2023-02-28T15:04:00;11.02;;;7.60;;
35330;SDS011;21441;52.190;20.910;2023-02-28T15:06:29;12.70;;;8.02;;
35330;SDS011;21441;52.190;20.910;2023-02-28T15:09:09;10.13;;;7.60;;
35330;SDS011;21441;52.190;20.910;2023-02-28T15:11:40;15.25;;;9.27;;
35330;SDS011;21441;52.190;20.910;2023-02-28T15:14:13;12.30;;;8.75;;
35330;SDS011;21441;52.190;20.910;2023-02-28T15:16:45;13.18;;;8.77;;
35330;SDS011;21441;52.190;20.910;2023-02-28T15:21:48;13.43;;;10.05;;
35330;SDS011;21441;52.190;20.910;2023-02-28T15:24:25;13.88;;;9.25;;
35330;SDS011;21441;52.190;20.910;2023-02-28T15:26:58;12.75;;;8.73;;
35330;SDS011;21441;52.190;20.910;2023-02-28T15:29:30;14.88;;;8.77;;